1986 JAVIER (1986233N10263)


On this page: IBTrACS data - Map and Plots - Positions - Intensities - Original source data

Summary

Start Aug 20
End Aug 31
Basin EP
LMI 115 kt
Sources hurdat_epa
jtwc_ep
td9636
atcf
In WMO? Yes
Previous storm 1986 ISIS (EP)
Previous in basin 1986 ISIS (EP)
Concurrent storms 1986 TIP (WP)
1986 VERA (WP)
1986 CHARLEY (NA)
1986 WAYNE (WP)
1986 ISIS (EP)
1986 JAVIER (EP)
1986 TD0902 (WP)
1986 KAY (EP)
1986 MISSING (NA)
Next in basin 1986 KAY (EP)
Next storm 1986 TD0902 (WP)

top of page IBTrACS Data: File Access

top of page HURSAT Data: File Access

Image of storm

top of page Plots:

Map of storm track will not appear if FTP is down
Time series of cyclone Maximum Sustained Wind will not appear if FTP is down
Time series of cyclone Minimum Central Pressure will not appear if FTP is down

top of page Track Data:Position

hurdat_epa jtwc_ep td9636 atcf
Date Lat Lon Lat Lon Lat Lon Lat Lon
1986-08-20 12:00:00 10.0 -97.2 10.0 -97.2 10.0 -97.2 10.0 -97.2
1986-08-20 18:00:00 10.2 -98.5 10.2 -98.5 10.3 -98.5 10.2 -98.5
1986-08-21 00:00:00 10.6 -99.9 10.6 -99.9 10.6 -99.9 10.6 -99.9
1986-08-21 06:00:00 11.0 -101.2 11.0 -101.2 11.0 -101.4 11.0 -101.2
1986-08-21 12:00:00 11.4 -102.8 11.4 -102.8 11.4 -102.8 11.4 -102.8
1986-08-21 18:00:00 11.8 -104.2 11.8 -104.2 11.7 -104.2 11.8 -104.2
1986-08-22 00:00:00 12.0 -105.5 12.0 -105.5 12.0 -105.5 12.0 -105.5
1986-08-22 06:00:00 12.3 -106.5 12.3 -106.5 12.3 -106.6 12.3 -106.5
1986-08-22 12:00:00 12.5 -107.5 12.5 -107.5 12.5 -107.5 12.5 -107.5
1986-08-22 18:00:00 12.8 -108.6 12.8 -108.6 12.7 -108.4 12.8 -108.6
1986-08-23 00:00:00 13.0 -109.2 13.0 -109.2 13.0 -109.2 13.0 -109.2
1986-08-23 06:00:00 13.3 -109.6 13.3 -109.6 13.3 -109.7 13.3 -109.6
1986-08-23 12:00:00 13.6 -110.0 13.6 -110.0 13.6 -110.0 13.6 -110.0
1986-08-23 18:00:00 14.0 -110.2 14.0 -110.2 14.0 -110.2 14.0 -110.2
1986-08-24 00:00:00 14.5 -110.2 14.5 -110.2 14.5 -110.2 14.5 -110.2
1986-08-24 06:00:00 15.1 -110.1 15.1 -110.1 15.1 -110.1 15.1 -110.1
1986-08-24 12:00:00 15.8 -110.1 15.8 -110.1 15.8 -110.1 15.8 -110.1
1986-08-24 18:00:00 16.6 -110.4 16.6 -110.4 16.5 -110.3 16.6 -110.4
1986-08-25 00:00:00 17.1 -110.8 17.1 -110.8 17.1 -110.8 17.1 -110.8
1986-08-25 06:00:00 17.6 -111.4 17.6 -111.4 17.6 -111.4 17.6 -111.4
1986-08-25 12:00:00 18.0 -112.1 18.0 -112.1 18.0 -112.1 18.0 -112.1
1986-08-25 18:00:00 18.5 -112.8 18.5 -112.8 18.6 -112.9 18.5 -112.8
1986-08-26 00:00:00 19.1 -113.8 19.1 -113.8 19.1 -113.8 19.1 -113.8
1986-08-26 06:00:00 19.6 -115.2 19.6 -115.2 19.6 -115.0 19.6 -115.2
1986-08-26 12:00:00 19.9 -116.4 19.9 -116.4 19.9 -116.4 19.9 -116.4
hurdat_epa jtwc_ep td9636 atcf
1986-08-26 18:00:00 20.1 -117.7 20.1 -117.7 20.1 -117.7 20.1 -117.7
1986-08-27 00:00:00 20.2 -119.1 20.2 -119.1 20.2 -119.1 20.2 -119.1
1986-08-27 06:00:00 20.2 -120.6 20.2 -120.6 20.3 -120.6 20.2 -120.6
1986-08-27 12:00:00 20.3 -122.1 20.3 -122.1 20.3 -122.1 20.3 -122.1
1986-08-27 18:00:00 20.4 -123.5 20.4 -123.5 20.4 -123.6 20.4 -123.5
1986-08-28 00:00:00 20.5 -124.9 20.5 -124.9 20.5 -124.9 20.5 -124.9
1986-08-28 06:00:00 20.6 -126.1 20.6 -126.1 20.6 -126.1 20.6 -126.1
1986-08-28 12:00:00 20.8 -127.2 20.8 -127.2 20.8 -127.2 20.8 -127.2
1986-08-28 18:00:00 20.9 -128.1 20.9 -128.1 20.9 -128.2 20.9 -128.1
1986-08-29 00:00:00 21.1 -129.1 21.1 -129.1 21.1 -129.1 21.1 -129.1
1986-08-29 06:00:00 21.4 -130.1 21.4 -130.1 21.4 -130.0 21.4 -130.1
1986-08-29 12:00:00 21.7 -131.0 21.7 -131.0 21.7 -131.0 21.7 -131.0
1986-08-29 18:00:00 22.0 -132.0 22.0 -132.0 22.0 -132.0 22.0 -132.0
1986-08-30 00:00:00 22.3 -133.0 22.3 -133.0 22.3 -133.0 22.3 -133.0
1986-08-30 06:00:00 22.7 -133.8 22.7 -133.8 22.7 -133.8 22.7 -133.8
1986-08-30 12:00:00 23.2 -134.6 23.2 -134.6 23.2 -134.6 23.2 -134.6
1986-08-30 18:00:00 23.8 -135.5 23.8 -135.5 23.7 -135.5 23.8 -135.5
1986-08-31 00:00:00 24.2 -136.4 24.2 -136.4 24.2 -136.4 24.2 -136.4
1986-08-31 06:00:00 24.5 -137.4 24.5 -137.4 24.5 -137.4 24.5 -137.4

top of pageTrack Data:Intensity

hurdat_epa jtwc_ep td9636 atcf
Date Wind Pres Wind Pres Wind Pres Wind Pres
1986-08-20 12:00:00 30. 30. 30. 30.
1986-08-20 18:00:00 45. 45. 30. 45.
1986-08-21 00:00:00 55. 55. 55. 55.
1986-08-21 06:00:00 55. 55. 55. 55.
1986-08-21 12:00:00 90. 90. 90. 90.
1986-08-21 18:00:00 90. 90. 90. 90.
1986-08-22 00:00:00 100. 100. 100. 100.
1986-08-22 06:00:00 100. 100. 100. 100.
1986-08-22 12:00:00 90. 90. 90. 90.
1986-08-22 18:00:00 90. 90. 90. 90.
1986-08-23 00:00:00 90. 90. 90. 90.
1986-08-23 06:00:00 90. 90. 90. 90.
1986-08-23 12:00:00 90. 90. 90. 90.
1986-08-23 18:00:00 80. 80. 90. 80.
1986-08-24 00:00:00 100. 100. 100. 100.
1986-08-24 06:00:00 110. 110. 100. 110.
1986-08-24 12:00:00 110. 110. 110. 110.
1986-08-24 18:00:00 110. 110. 110. 110.
1986-08-25 00:00:00 115. 115. 115. 115.
1986-08-25 06:00:00 110. 110. 115. 110.
1986-08-25 12:00:00 115. 115. 115. 115.
1986-08-25 18:00:00 95. 95. 115. 95.
1986-08-26 00:00:00 90. 90. 90. 90.
1986-08-26 06:00:00 85. 85. 90. 85.
1986-08-26 12:00:00 75. 75. 75. 75.
hurdat_epa jtwc_ep td9636 atcf
1986-08-26 18:00:00 75. 75. 75. 75.
1986-08-27 00:00:00 65. 65. 65. 65.
1986-08-27 06:00:00 65. 65. 65. 65.
1986-08-27 12:00:00 65. 65. 65. 65.
1986-08-27 18:00:00 65. 65. 65. 65.
1986-08-28 00:00:00 65. 65. 65. 65.
1986-08-28 06:00:00 65. 65. 65. 65.
1986-08-28 12:00:00 60. 60. 60. 60.
1986-08-28 18:00:00 60. 60. 60. 60.
1986-08-29 00:00:00 60. 60. 60. 60.
1986-08-29 06:00:00 60. 60. 60. 60.
1986-08-29 12:00:00 50. 50. 50. 50.
1986-08-29 18:00:00 40. 40. 50. 40.
1986-08-30 00:00:00 35. 35. 35. 35.
1986-08-30 06:00:00 30. 30. 35. 30.
1986-08-30 12:00:00 30. 30. 30. 30.
1986-08-30 18:00:00 30. 30. 30. 30.
1986-08-31 00:00:00 25. 25. 25. 25.
1986-08-31 06:00:00 25. 25. 25. 25.

top of page Links to source data

Source Source file Format
hurdat_epa tracks1949to2011_epa.html:487:JAVIER HURDAT
jtwc_ep bep101986.txt ATCF
td9636 cons_worldwide_trop_cyclone_18710101-19891231-002:Line=6000 TD 9636
atcf bep101986.dat ATCF